createdAt,value
2023-04-21T00:01:31.725Z,3.00
2023-04-21T00:04:21.140Z,2.85
2023-04-21T00:07:10.535Z,3.03
2023-04-21T00:09:59.752Z,2.75
2023-04-21T00:12:48.956Z,2.78
2023-04-21T00:15:38.547Z,3.10
2023-04-21T00:18:28.777Z,2.88
2023-04-21T00:21:19.631Z,2.80
2023-04-21T00:24:09.165Z,3.10
2023-04-21T00:26:58.454Z,2.88
2023-04-21T00:29:47.709Z,3.03
2023-04-21T00:32:37.193Z,2.75
2023-04-21T00:35:27.101Z,2.75
2023-04-21T00:38:16.649Z,2.90
2023-04-21T00:41:05.989Z,3.00
2023-04-21T00:44:09.609Z,2.80
2023-04-21T00:46:59.422Z,2.85
2023-04-21T00:49:49.157Z,2.75
2023-04-21T00:52:40.731Z,3.05
2023-04-21T00:55:30.482Z,2.80
2023-04-21T00:58:19.738Z,3.10
2023-04-21T01:01:09.497Z,2.90
2023-04-21T01:04:02.744Z,2.83
2023-04-21T01:06:52.716Z,2.88
2023-04-21T01:09:42.001Z,2.80
2023-04-21T01:12:31.476Z,2.80
2023-04-21T01:15:21.617Z,2.90
2023-04-21T01:18:10.979Z,2.63
2023-04-21T01:21:02.279Z,3.00
2023-04-21T01:23:51.611Z,2.83
2023-04-21T01:26:40.902Z,2.83
2023-04-21T01:29:33.701Z,2.90
2023-04-21T01:32:30.380Z,2.90
2023-04-21T01:35:19.859Z,2.78
2023-04-21T01:38:09.276Z,2.78
2023-04-21T01:40:58.559Z,2.65
2023-04-21T01:43:49.813Z,2.78
2023-04-21T01:46:39.660Z,2.90
2023-04-21T01:49:28.861Z,2.83
2023-04-21T01:52:19.165Z,2.97
2023-04-21T01:55:08.897Z,2.85
2023-04-21T01:58:01.118Z,3.00
2023-04-21T02:00:50.318Z,2.87
2023-04-21T02:03:39.703Z,2.92
2023-04-21T02:06:32.536Z,3.30
2023-04-21T02:09:22.294Z,3.10
2023-04-21T02:12:14.950Z,3.10
2023-04-21T02:15:05.117Z,3.08
2023-04-21T02:17:54.859Z,2.90
2023-04-21T02:20:47.466Z,2.75
2023-04-21T02:23:36.653Z,2.80
2023-04-21T02:26:28.092Z,2.63
2023-04-21T02:29:19.325Z,2.95
2023-04-21T02:32:18.310Z,3.00
2023-04-21T02:35:16.479Z,2.90
2023-04-21T02:38:08.471Z,3.13
2023-04-21T02:40:58.742Z,3.20
2023-04-21T02:43:49.855Z,3.30
2023-04-21T02:46:42.860Z,3.20
2023-04-21T02:52:23.844Z,3.33
2023-04-21T02:55:14.081Z,2.88
2023-04-21T02:58:03.932Z,3.20
2023-04-21T03:00:53.612Z,2.70
2023-04-21T03:03:44.419Z,3.08
2023-04-21T03:06:35.010Z,3.30
2023-04-21T03:09:25.196Z,3.10
2023-04-21T03:12:15.546Z,3.13
2023-04-21T03:15:07.071Z,2.90
2023-04-21T03:17:57.426Z,2.97
2023-04-21T03:20:48.007Z,2.90
2023-04-21T03:23:37.237Z,3.05
2023-04-21T03:26:26.753Z,2.95
2023-04-21T03:29:16.039Z,3.10
2023-04-21T03:32:08.229Z,3.05
2023-04-21T03:37:47.253Z,2.90
2023-04-21T03:40:36.668Z,2.83
2023-04-21T03:43:26.380Z,3.10
2023-04-21T03:46:23.113Z,3.35
2023-04-21T03:49:12.474Z,3.00
2023-04-21T03:52:01.864Z,3.10
2023-04-21T03:54:51.347Z,3.15
2023-04-21T03:57:42.844Z,2.80
2023-04-21T04:00:32.146Z,3.20
2023-04-21T04:03:23.363Z,3.53
2023-04-21T04:06:12.865Z,2.90
2023-04-21T04:09:05.439Z,3.13
2023-04-21T04:11:54.685Z,3.00
2023-04-21T04:14:43.914Z,2.92
2023-04-21T04:17:33.111Z,3.33
2023-04-21T04:20:22.566Z,3.10
2023-04-21T04:23:12.149Z,3.47
2023-04-21T04:26:02.754Z,3.10
2023-04-21T04:28:52.419Z,3.30
2023-04-21T04:31:41.885Z,3.50
2023-04-21T04:34:31.667Z,3.10
2023-04-21T04:37:23.025Z,3.42
2023-04-21T04:40:16.638Z,3.40
2023-04-21T04:43:05.936Z,3.58
2023-04-21T04:45:55.530Z,3.00
2023-04-21T04:48:44.834Z,3.60
2023-04-21T04:51:34.691Z,3.40
2023-04-21T04:54:24.255Z,3.13
2023-04-21T04:57:13.602Z,2.97
2023-04-21T05:00:02.854Z,3.30
2023-04-21T05:02:52.199Z,3.28
2023-04-21T05:05:41.575Z,3.15
2023-04-21T05:08:30.830Z,3.70
2023-04-21T05:11:20.052Z,3.28
2023-04-21T05:14:09.311Z,2.83
2023-04-21T05:16:58.704Z,3.28
2023-04-21T05:19:47.958Z,3.60
2023-04-21T05:22:40.787Z,3.30
2023-04-21T05:25:30.653Z,3.53
2023-04-21T05:28:20.013Z,3.33
2023-04-21T05:31:09.303Z,3.20
2023-04-21T05:33:58.531Z,3.28
2023-04-21T05:36:49.980Z,3.42
2023-04-21T05:39:39.532Z,3.75
2023-04-21T05:42:28.932Z,3.50
2023-04-21T05:45:18.349Z,3.30
2023-04-21T05:48:07.952Z,3.15
2023-04-21T05:50:57.775Z,3.15
2023-04-21T05:53:47.634Z,3.40
2023-04-21T05:56:36.856Z,3.35
2023-04-21T05:59:27.526Z,3.47
2023-04-21T06:02:16.920Z,3.60
2023-04-21T06:05:07.399Z,3.65
2023-04-21T06:07:56.710Z,3.25
2023-04-21T06:10:46.042Z,3.97
2023-04-21T06:13:36.960Z,3.83
2023-04-21T06:16:28.167Z,2.93
2023-04-21T06:19:17.562Z,3.78
2023-04-21T06:22:07.331Z,3.13
2023-04-21T06:24:57.269Z,3.38
2023-04-21T06:27:47.660Z,3.17
2023-04-21T06:30:37.130Z,3.47
2023-04-21T06:33:26.726Z,3.10
2023-04-21T06:36:17.850Z,3.47
2023-04-21T06:39:07.516Z,3.45
2023-04-21T06:41:59.157Z,3.90
2023-04-21T06:44:50.178Z,3.30
2023-04-21T06:47:40.247Z,3.72
2023-04-21T06:50:29.510Z,3.60
2023-04-21T06:53:22.721Z,3.38
2023-04-21T06:56:12.063Z,3.42
2023-04-21T06:59:01.517Z,3.55
2023-04-21T07:01:53.267Z,3.65
2023-04-21T07:04:42.979Z,4.22
2023-04-21T07:07:32.262Z,3.40
2023-04-21T07:10:21.671Z,4.05
2023-04-21T07:13:10.980Z,3.38
2023-04-21T07:16:00.353Z,4.38
2023-04-21T07:18:49.592Z,3.70
2023-04-21T07:21:38.947Z,3.60
2023-04-21T07:24:28.137Z,3.55
2023-04-21T07:27:17.551Z,3.70
2023-04-21T07:30:07.582Z,4.03
2023-04-21T07:32:57.293Z,3.75
2023-04-21T07:35:46.604Z,3.70
2023-04-21T07:38:36.025Z,4.00
2023-04-21T07:41:25.434Z,3.78
2023-04-21T07:44:14.668Z,3.72
2023-04-21T07:47:03.971Z,3.60
2023-04-21T07:49:53.270Z,3.90
2023-04-21T07:52:42.474Z,3.67
2023-04-21T07:55:32.022Z,3.92
2023-04-21T07:58:21.841Z,3.65
2023-04-21T08:01:11.159Z,4.15
2023-04-21T08:04:00.580Z,4.10
2023-04-21T08:06:50.043Z,4.45
2023-04-21T08:09:39.394Z,4.15
2023-04-21T08:12:28.864Z,4.10
2023-04-21T08:15:18.084Z,3.70
2023-04-21T08:18:08.328Z,3.90
2023-04-21T08:20:59.126Z,3.67
2023-04-21T08:23:48.391Z,4.10
2023-04-21T08:26:37.697Z,4.47
2023-04-21T08:29:26.946Z,3.97
2023-04-21T08:32:16.137Z,4.53
2023-04-21T08:35:05.761Z,4.50
2023-04-21T08:37:55.006Z,4.93
2023-04-21T08:40:44.284Z,4.30
2023-04-21T08:43:34.294Z,4.28
2023-04-21T08:46:24.592Z,4.10
2023-04-21T08:49:17.310Z,4.13
2023-04-21T08:52:07.313Z,3.97
2023-04-21T08:54:57.630Z,4.20
2023-04-21T08:57:46.886Z,4.10
2023-04-21T09:00:39.443Z,4.15
2023-04-21T09:03:30.135Z,4.68
2023-04-21T09:06:19.781Z,4.22
2023-04-21T09:09:09.134Z,4.35
2023-04-21T09:12:03.142Z,4.35
2023-04-21T09:14:52.620Z,4.43
2023-04-21T09:17:41.922Z,4.75
2023-04-21T09:20:31.346Z,4.40
2023-04-21T09:23:22.657Z,4.20
2023-04-21T09:26:12.729Z,4.30
2023-04-21T09:29:02.036Z,4.65
2023-04-21T09:31:55.128Z,4.30
2023-04-21T09:34:45.318Z,4.75
2023-04-21T09:37:37.483Z,4.40
2023-04-21T09:40:27.046Z,4.25
2023-04-21T09:43:16.419Z,4.45
2023-04-21T09:46:08.160Z,4.20
2023-04-21T09:48:59.840Z,4.32
2023-04-21T09:52:16.731Z,4.50
2023-04-21T09:55:06.579Z,4.68
2023-04-21T09:58:04.134Z,4.60
2023-04-21T10:00:55.027Z,4.13
2023-04-21T10:03:47.627Z,4.65
2023-04-21T10:06:37.588Z,4.75
2023-04-21T10:09:40.333Z,4.40
2023-04-21T10:12:29.767Z,5.18
2023-04-21T10:15:38.985Z,4.95
2023-04-21T10:18:30.909Z,4.65
2023-04-21T10:21:23.018Z,4.30
2023-04-21T10:24:16.199Z,4.68
2023-04-21T10:27:05.632Z,4.53
2023-04-21T10:29:57.060Z,5.05
2023-04-21T10:32:47.452Z,4.65
2023-04-21T10:36:01.222Z,4.47
2023-04-21T10:38:59.759Z,5.00
2023-04-21T10:41:49.037Z,5.00
2023-04-21T10:44:42.840Z,4.68
2023-04-21T10:47:47.200Z,4.80
2023-04-21T10:50:37.454Z,4.68
2023-04-21T10:53:29.049Z,4.60
2023-04-21T10:56:18.794Z,4.80
2023-04-21T10:59:09.516Z,4.35
2023-04-21T11:01:58.991Z,4.60
2023-04-21T11:04:53.232Z,4.70
2023-04-21T11:07:45.570Z,4.97
2023-04-21T11:10:56.234Z,5.10
2023-04-21T11:13:45.496Z,5.03
2023-04-21T11:16:35.609Z,4.72
2023-04-21T11:19:26.235Z,5.20
2023-04-21T11:22:17.647Z,4.63
2023-04-21T11:25:07.457Z,5.05
2023-04-21T11:27:58.074Z,5.22
2023-04-21T11:30:47.602Z,5.07
2023-04-21T11:33:40.722Z,4.97
2023-04-21T11:36:30.723Z,5.55
2023-04-21T11:39:23.500Z,5.68
2023-04-21T11:42:13.213Z,4.82
2023-04-21T11:45:02.449Z,4.80
2023-04-21T11:47:52.184Z,5.03
2023-04-21T11:50:41.626Z,4.93
2023-04-21T11:53:31.104Z,5.47
2023-04-21T11:56:23.483Z,5.13
2023-04-21T11:59:20.807Z,4.50
2023-04-21T12:02:22.963Z,5.03
2023-04-21T12:05:14.052Z,4.82
2023-04-21T12:08:04.954Z,4.72
2023-04-21T12:10:54.169Z,4.80
2023-04-21T12:13:43.381Z,5.10
2023-04-21T12:16:32.614Z,4.88
2023-04-21T12:19:41.420Z,4.72
2023-04-21T12:22:30.544Z,4.80
2023-04-21T12:25:20.120Z,4.80
2023-04-21T12:28:10.556Z,5.07
2023-04-21T12:30:59.824Z,5.40
2023-04-21T12:33:49.143Z,4.95
2023-04-21T12:36:40.150Z,5.00
2023-04-21T12:39:30.317Z,5.20
2023-04-21T12:42:20.071Z,5.18
2023-04-21T12:45:10.038Z,4.85
2023-04-21T12:47:59.579Z,5.10
2023-04-21T12:50:48.960Z,4.50
2023-04-21T12:53:38.246Z,5.20
2023-04-21T12:56:28.061Z,5.20
2023-04-21T12:59:17.419Z,4.90
2023-04-21T13:02:06.760Z,4.55
2023-04-21T13:04:56.271Z,4.85
2023-04-21T13:07:45.499Z,4.82
2023-04-21T13:10:34.789Z,5.07
2023-04-21T13:13:24.032Z,5.07
2023-04-21T13:16:13.425Z,4.70
2023-04-21T13:19:02.756Z,4.85
2023-04-21T13:21:54.206Z,4.93
2023-04-21T13:24:44.097Z,5.45
2023-04-21T13:27:34.739Z,5.05
2023-04-21T13:30:23.985Z,4.75
2023-04-21T13:33:13.634Z,4.53
2023-04-21T13:36:04.714Z,4.90
2023-04-21T13:38:56.395Z,4.80
2023-04-21T13:41:45.514Z,4.70
2023-04-21T13:44:34.824Z,4.35
2023-04-21T13:47:25.273Z,4.82
2023-04-21T13:50:14.597Z,4.50
2023-04-21T13:53:03.821Z,4.70
2023-04-21T13:55:54.400Z,5.20
2023-04-21T13:58:43.988Z,4.20
2023-04-21T14:01:33.308Z,4.50
2023-04-21T14:04:23.106Z,4.13
2023-04-21T14:07:12.546Z,4.20
2023-04-21T14:10:02.587Z,4.05
2023-04-21T14:12:51.970Z,4.38
2023-04-21T14:15:41.565Z,4.20
2023-04-21T14:18:30.897Z,4.35
2023-04-21T14:21:20.166Z,4.75
2023-04-21T14:24:09.999Z,4.13
2023-04-21T14:26:59.486Z,4.60
2023-04-21T14:29:48.854Z,4.30
2023-04-21T14:32:38.493Z,4.13
2023-04-21T14:35:28.041Z,4.05
2023-04-21T14:38:17.692Z,4.63
2023-04-21T14:41:07.268Z,4.20
2023-04-21T14:43:58.737Z,4.18
2023-04-21T14:46:56.918Z,4.07
2023-04-21T14:49:56.835Z,3.70
2023-04-21T14:52:50.268Z,3.80
2023-04-21T14:55:39.534Z,4.43
2023-04-21T14:58:28.767Z,4.00
2023-04-21T15:01:18.072Z,4.32
2023-04-21T15:04:07.797Z,3.92
2023-04-21T15:06:57.324Z,3.80
2023-04-21T15:09:46.883Z,3.88
2023-04-21T15:12:36.785Z,4.30
2023-04-21T15:15:27.097Z,3.97
2023-04-21T15:18:16.367Z,3.80
2023-04-21T15:21:05.851Z,4.15
2023-04-21T15:23:55.050Z,3.70
2023-04-21T15:26:44.517Z,3.72
2023-04-21T15:29:34.067Z,4.03
2023-04-21T15:32:23.541Z,3.88
2023-04-21T15:35:12.776Z,3.85
2023-04-21T15:38:02.140Z,3.85
2023-04-21T15:41:00.756Z,4.45
2023-04-21T15:43:50.702Z,4.03
2023-04-21T15:46:40.154Z,3.60
2023-04-21T15:49:29.547Z,3.75
2023-04-21T15:52:18.760Z,3.75
2023-04-21T15:55:08.740Z,3.92
2023-04-21T15:57:57.974Z,3.65
2023-04-21T16:00:47.273Z,3.85
2023-04-21T16:03:37.170Z,3.85
2023-04-21T16:06:27.521Z,3.78
2023-04-21T16:09:18.268Z,3.70
2023-04-21T16:12:11.193Z,3.70
2023-04-21T16:15:09.362Z,3.85
2023-04-21T16:18:09.795Z,4.55
2023-04-21T16:20:59.294Z,3.97
2023-04-21T16:23:49.492Z,3.78
2023-04-21T16:26:38.789Z,4.00
2023-04-21T16:29:28.028Z,3.50
2023-04-21T16:32:17.451Z,3.50
2023-04-21T16:35:08.995Z,3.75
2023-04-21T16:37:58.318Z,3.42
2023-04-21T16:40:47.537Z,4.35
2023-04-21T16:43:37.903Z,3.60
2023-04-21T16:46:27.258Z,3.42
2023-04-21T16:49:16.583Z,3.70
2023-04-21T16:52:05.850Z,3.50
2023-04-21T16:54:55.163Z,3.47
2023-04-21T16:57:44.416Z,3.83
2023-04-21T17:00:33.705Z,3.65
2023-04-21T17:03:23.464Z,3.60
2023-04-21T17:06:13.138Z,3.83
2023-04-21T17:09:02.721Z,3.30
2023-04-21T17:11:52.001Z,3.75
2023-04-21T17:14:41.535Z,3.58
2023-04-21T17:17:44.674Z,3.50
2023-04-21T17:20:34.120Z,3.70
2023-04-21T17:23:23.337Z,3.28
2023-04-21T17:26:13.298Z,4.00
2023-04-21T17:29:03.030Z,3.60
2023-04-21T17:31:52.336Z,3.30
2023-04-21T17:34:41.713Z,3.70
2023-04-21T17:37:31.325Z,3.78
2023-04-21T17:40:20.669Z,3.50
2023-04-21T17:43:09.946Z,4.18
2023-04-21T17:45:59.292Z,3.63
2023-04-21T17:48:49.349Z,3.47
2023-04-21T17:51:38.633Z,3.53
2023-04-21T17:54:27.865Z,3.33
2023-04-21T17:57:17.212Z,3.50
2023-04-21T18:00:09.393Z,3.40
2023-04-21T18:02:58.664Z,3.20
2023-04-21T18:05:48.313Z,3.63
2023-04-21T18:08:38.231Z,3.65
2023-04-21T18:11:27.652Z,3.33
2023-04-21T18:14:17.076Z,3.20
2023-04-21T18:17:07.088Z,3.42
2023-04-21T18:19:56.828Z,3.20
2023-04-21T18:22:46.930Z,3.20
2023-04-21T18:25:42.558Z,3.40
2023-04-21T18:28:33.086Z,3.20
2023-04-21T18:31:27.059Z,3.33
2023-04-21T18:34:17.602Z,3.45
2023-04-21T18:37:06.872Z,3.20
2023-04-21T18:39:56.261Z,3.90
2023-04-21T18:42:45.608Z,3.13
2023-04-21T18:45:35.440Z,3.22
2023-04-21T18:48:24.694Z,3.38
2023-04-21T18:51:14.506Z,3.10
2023-04-21T18:54:05.859Z,3.38
2023-04-21T18:56:55.098Z,3.33
2023-04-21T18:59:44.333Z,3.10
2023-04-21T19:02:34.240Z,3.30
2023-04-21T19:05:23.578Z,3.40
2023-04-21T19:08:12.809Z,3.35
2023-04-21T19:11:02.531Z,3.10
2023-04-21T19:13:52.001Z,3.53
2023-04-21T19:16:41.499Z,3.50
2023-04-21T19:19:30.833Z,3.17
2023-04-21T19:22:21.078Z,3.22
2023-04-21T19:25:11.060Z,2.97
2023-04-21T19:28:02.342Z,3.28
2023-04-21T19:30:51.744Z,3.42
2023-04-21T19:33:40.979Z,3.50
2023-04-21T19:36:30.361Z,2.90
2023-04-21T19:39:19.585Z,3.25
2023-04-21T19:42:09.284Z,3.22
2023-04-21T19:44:58.557Z,2.95
2023-04-21T19:47:48.798Z,2.90
2023-04-21T19:50:38.436Z,3.05
2023-04-21T19:53:27.751Z,3.30
2023-04-21T19:56:17.446Z,2.97
2023-04-21T19:59:06.849Z,3.05
2023-04-21T20:01:56.055Z,3.17
2023-04-21T20:04:45.449Z,3.05
2023-04-21T20:07:34.964Z,3.03
2023-04-21T20:10:24.285Z,2.95
2023-04-21T20:13:14.165Z,3.10
2023-04-21T20:16:03.865Z,2.97
2023-04-21T20:18:53.882Z,3.22
2023-04-21T20:21:44.878Z,3.40
2023-04-21T20:24:35.319Z,3.40
2023-04-21T20:27:25.380Z,3.20
2023-04-21T20:30:14.806Z,3.13
2023-04-21T20:33:04.125Z,2.72
2023-04-21T20:35:57.995Z,2.88
2023-04-21T20:38:47.471Z,3.10
2023-04-21T20:41:36.845Z,3.10
2023-04-21T20:44:26.303Z,3.10
2023-04-21T20:47:15.652Z,2.63
2023-04-21T20:50:05.932Z,2.90
2023-04-21T20:52:55.210Z,2.80
2023-04-21T20:55:44.562Z,3.00
2023-04-21T20:58:34.265Z,2.80
2023-04-21T21:01:24.762Z,2.88
2023-04-21T21:04:14.512Z,2.80
2023-04-21T21:07:03.984Z,3.05
2023-04-21T21:09:53.200Z,2.92
2023-04-21T21:12:42.652Z,2.80
2023-04-21T21:15:31.933Z,2.80
2023-04-21T21:18:21.262Z,2.78
2023-04-21T21:21:10.689Z,3.17
2023-04-21T21:23:59.883Z,2.85
2023-04-21T21:26:49.170Z,2.78
2023-04-21T21:29:38.876Z,2.55
2023-04-21T21:32:28.403Z,2.45
2023-04-21T21:35:17.794Z,2.58
2023-04-21T21:38:07.488Z,2.55
2023-04-21T21:40:56.889Z,2.53
2023-04-21T21:43:46.159Z,2.60
2023-04-21T21:46:35.629Z,2.50
2023-04-21T21:49:25.016Z,2.70
2023-04-21T21:52:16.132Z,2.58
2023-04-21T21:55:05.923Z,2.60
2023-04-21T21:57:55.232Z,2.47
2023-04-21T22:00:44.478Z,2.55
2023-04-21T22:03:33.933Z,2.85
2023-04-21T22:06:25.118Z,2.40
2023-04-21T22:09:14.357Z,2.40
2023-04-21T22:12:03.734Z,2.50
2023-04-21T22:14:54.009Z,2.50
2023-04-21T22:17:44.594Z,2.58
2023-04-21T22:20:34.179Z,2.97
2023-04-21T22:23:23.499Z,2.75
2023-04-21T22:26:12.824Z,2.85
2023-04-21T22:29:02.181Z,2.58
2023-04-21T22:31:51.615Z,2.78
2023-04-21T22:34:41.134Z,2.90
2023-04-21T22:37:30.551Z,2.75
2023-04-21T22:40:19.983Z,2.65
2023-04-21T22:43:09.361Z,2.53
2023-04-21T22:45:58.576Z,2.70
2023-04-21T22:48:48.232Z,2.60
2023-04-21T22:51:37.909Z,2.78
2023-04-21T22:54:27.928Z,2.60
2023-04-21T22:57:17.246Z,2.92
2023-04-21T23:00:12.341Z,2.80
2023-04-21T23:03:02.073Z,2.60
2023-04-21T23:05:51.492Z,2.70
2023-04-21T23:08:40.829Z,2.60
2023-04-21T23:11:30.132Z,2.80
2023-04-21T23:14:19.483Z,2.50
2023-04-21T23:17:08.861Z,2.55
2023-04-21T23:19:58.124Z,2.80
2023-04-21T23:22:47.484Z,2.78
2023-04-21T23:25:37.356Z,2.40
2023-04-21T23:28:26.783Z,2.42
2023-04-21T23:31:16.061Z,2.25
2023-04-21T23:34:05.384Z,2.17
2023-04-21T23:36:54.644Z,1.98
2023-04-21T23:39:44.013Z,2.40
2023-04-21T23:42:33.363Z,2.70
2023-04-21T23:45:22.759Z,2.30
2023-04-21T23:48:12.744Z,2.22
2023-04-21T23:51:02.332Z,2.25
2023-04-21T23:53:51.837Z,2.20
2023-04-21T23:56:41.121Z,2.30
2023-04-21T23:59:30.393Z,2.00
